Time;durP1;ratioP1;P1;durP2;ratioP2;P2;SDS_P1;SDS_P2;PMS_P1;PMS_P2;Temp;Humidity;BMP_temperature;BMP_pressure;BME280_temperature;BME280_humidity;BME280_pressure;Samples;Min_cycle;Max_cycle;Signal;HPM_P1;HPM_P2
2023/06/10 00:01:59;;;;;;;21.8;18.6;;;;;;;16.5;88.2;98420;;;;
2023/06/10 00:12:00;;;;;;;21.8;18.6;;;;;;;16.6;87.8;98430;;;;
2023/06/10 00:22:59;;;;;;;19.5;17.3;;;;;;;16.6;87.4;98420;;;;
2023/06/10 00:32:58;;;;;;;19.5;17.3;;;;;;;16.6;87;98430;;;;
2023/06/10 00:42:58;;;;;;;19.5;17.3;;;;;;;16.5;87.5;98440;;;;
2023/06/10 00:52:58;;;;;;;20.9;16.7;;;;;;;16.5;88.2;98440;;;;
2023/06/10 01:03:58;;;;;;;20.9;16.7;;;;;;;16.6;88;98450;;;;
2023/06/10 01:13:58;;;;;;;20.9;16.7;;;;;;;16.8;87.3;98460;;;;
2023/06/10 01:23:58;;;;;;;23.3;17.2;;;;;;;16.9;86.7;98450;;;;
2023/06/10 01:33:58;;;;;;;23.3;17.2;;;;;;;16.8;87;98450;;;;
2023/06/10 01:44:58;;;;;;;23.3;17.2;;;;;;;16.9;86.5;98450;;;;
2023/06/10 01:54:58;;;;;;;19.8;15.9;;;;;;;16.9;86;98450;;;;
2023/06/10 02:05:58;;;;;;;19.8;15.9;;;;;;;16.8;86.4;98450;;;;
2023/06/10 02:15:58;;;;;;;18.1;16.2;;;;;;;16.7;86.3;98450;;;;
2023/06/10 02:27:00;;;;;;;18.1;16.2;;;;;;;16.8;86.1;98460;;;;
2023/06/10 02:36:58;;;;;;;18.1;16.2;;;;;;;16.8;86.2;98450;;;;
2023/06/10 02:46:58;;;;;;;23.6;17;;;;;;;16.8;87.2;98460;;;;
2023/06/10 02:57:59;;;;;;;23.6;17;;;;;;;17;86.6;98460;;;;
2023/06/10 03:08:58;;;;;;;23.6;17;;;;;;;17.1;86.4;98470;;;;
2023/06/10 03:18:58;;;;;;;18.5;15.4;;;;;;;17.1;85.9;98480;;;;
2023/06/10 03:29:58;;;;;;;18.5;15.4;;;;;;;17;87.2;98480;;;;
2023/06/10 03:40:58;;;;;;;18.5;15.4;;;;;;;17;87.2;98490;;;;
2023/06/10 03:50:58;;;;;;;18.9;15.9;;;;;;;17;87.8;98490;;;;
2023/06/10 04:01:58;;;;;;;18.9;15.9;;;;;;;17.1;87.2;98500;;;;
2023/06/10 04:12:58;;;;;;;18.9;15.9;;;;;;;17.1;87.2;98500;;;;
2023/06/10 04:22:59;;;;;;;19.8;15.9;;;;;;;16.9;87.8;98500;;;;
2023/06/10 04:33:58;;;;;;;19.8;15.9;;;;;;;17;87.6;98500;;;;
2023/06/10 04:43:58;;;;;;;19.8;15.9;;;;;;;17;87.8;98510;;;;
2023/06/10 04:54:58;;;;;;;22.3;16;;;;;;;17.3;87;98520;;;;
2023/06/10 05:04:58;;;;;;;22.3;16;;;;;;;17.3;86.8;98520;;;;
2023/06/10 05:14:58;;;;;;;22.3;16;;;;;;;17.2;86.7;98540;;;;
2023/06/10 05:25:59;;;;;;;20;16.5;;;;;;;17.3;86.9;98540;;;;
2023/06/10 05:35:58;;;;;;;20;16.5;;;;;;;17.5;86.2;98540;;;;
2023/06/10 05:45:58;;;;;;;17.3;14.9;;;;;;;17.7;84.9;98550;;;;
2023/06/10 05:55:58;;;;;;;17.3;14.9;;;;;;;17.8;84.4;98550;;;;
2023/06/10 06:05:58;;;;;;;17.3;14.9;;;;;;;18;82.1;98550;;;;
2023/06/10 06:15:58;;;;;;;17.9;13.2;;;;;;;18.5;81.3;98560;;;;
2023/06/10 06:26:58;;;;;;;17.9;13.2;;;;;;;18.6;79;98560;;;;
2023/06/10 06:36:58;;;;;;;17.9;13.2;;;;;;;18.8;78.5;98570;;;;
2023/06/10 06:46:58;;;;;;;13.3;10.1;;;;;;;19.2;76.7;98580;;;;
2023/06/10 06:58:01;;;;;;;13.3;10.1;;;;;;;19.7;76.1;98590;;;;
2023/06/10 07:08:58;;;;;;;13.3;10.1;;;;;;;20;72.4;98590;;;;
2023/06/10 07:18:58;;;;;;;13.5;9.9;;;;;;;19.9;73;98590;;;;
2023/06/10 07:28:58;;;;;;;13.5;9.9;;;;;;;20.3;71.9;98610;;;;
2023/06/10 07:38:58;;;;;;;13.5;9.9;;;;;;;20.8;69.9;98600;;;;
2023/06/10 07:49:58;;;;;;;9.7;7.8;;;;;;;20.4;70.7;98600;;;;
2023/06/10 08:00:00;;;;;;;9.7;7.8;;;;;;;20.8;71.2;98610;;;;
2023/06/10 08:10:58;;;;;;;9.7;7.8;;;;;;;20.5;70.5;98620;;;;
2023/06/10 08:20:58;;;;;;;11.8;8;;;;;;;21.2;69.5;98620;;;;
2023/06/10 08:30:58;;;;;;;11.8;8;;;;;;;21.4;67.8;98630;;;;
2023/06/10 08:40:58;;;;;;;11.8;8;;;;;;;21.4;68.2;98620;;;;
2023/06/10 08:50:58;;;;;;;9.9;7.2;;;;;;;21.4;66.4;98630;;;;
2023/06/10 09:01:58;;;;;;;9.9;7.2;;;;;;;21.6;68.3;98630;;;;
2023/06/10 09:12:58;;;;;;;9.9;7.2;;;;;;;21.8;66.7;98610;;;;
2023/06/10 09:23:58;;;;;;;9.9;7.4;;;;;;;22.5;65.6;98610;;;;
2023/06/10 09:33:58;;;;;;;9.9;7.4;;;;;;;22.6;64.3;98610;;;;
2023/06/10 09:44:58;;;;;;;9.9;7.4;;;;;;;22.5;61.7;98610;;;;
2023/06/10 09:54:58;;;;;;;9.3;6.9;;;;;;;23.5;60.1;98600;;;;
2023/06/10 10:04:58;;;;;;;9.3;6.9;;;;;;;22.9;60.8;98600;;;;
2023/06/10 10:15:58;;;;;;;9.3;6.9;;;;;;;22.5;60.2;98610;;;;
2023/06/10 10:25:58;;;;;;;8.5;6.4;;;;;;;21.7;62.6;98620;;;;
2023/06/10 10:35:58;;;;;;;8.5;6.4;;;;;;;21.3;63.5;98630;;;;
2023/06/10 10:45:58;;;;;;;8.5;6.4;;;;;;;20.8;64.1;98620;;;;
2023/06/10 10:55:58;;;;;;;10.3;5.7;;;;;;;21.5;65.4;98620;;;;
2023/06/10 11:06:58;;;;;;;10.3;5.7;;;;;;;21.9;63.7;98630;;;;
2023/06/10 11:16:58;;;;;;;9.2;6.4;;;;;;;21.9;64.7;98610;;;;
2023/06/10 11:27:58;;;;;;;9.2;6.4;;;;;;;22.9;63.9;98610;;;;
2023/06/10 11:37:58;;;;;;;9.2;6.4;;;;;;;22.3;65.6;98620;;;;
2023/06/10 11:48:58;;;;;;;11.8;5.7;;;;;;;22;64.9;98620;;;;
2023/06/10 11:59:58;;;;;;;11.8;5.7;;;;;;;22.3;64.2;98610;;;;
2023/06/10 12:09:59;;;;;;;11.8;5.7;;;;;;;21.9;64.7;98610;;;;
2023/06/10 12:19:59;;;;;;;8.7;6.2;;;;;;;21.7;65.1;98610;;;;
2023/06/10 12:30:58;;;;;;;8.7;6.2;;;;;;;22.3;62.8;98610;;;;
2023/06/10 12:40:59;;;;;;;8.7;6.2;;;;;;;22.9;60.3;98610;;;;
2023/06/10 12:51:59;;;;;;;6.6;4.5;;;;;;;22.2;60;98600;;;;
2023/06/10 13:03:00;;;;;;;6.6;4.5;;;;;;;22.5;63.1;98600;;;;
2023/06/10 13:12:59;;;;;;;6.6;4.5;;;;;;;23;60.9;98590;;;;
2023/06/10 13:22:58;;;;;;;6;3.6;;;;;;;23.1;59;98590;;;;
2023/06/10 13:32:58;;;;;;;6;3.6;;;;;;;23.1;57.1;98590;;;;
2023/06/10 13:43:58;;;;;;;6;3.6;;;;;;;23.4;58.2;98590;;;;
2023/06/10 13:54:58;;;;;;;6.5;3.1;;;;;;;22.9;57.3;98590;;;;
2023/06/10 14:04:58;;;;;;;6.5;3.1;;;;;;;22.4;57.6;98590;;;;
2023/06/10 14:16:02;;;;;;;6.5;3.1;;;;;;;22.5;58.4;98590;;;;
2023/06/10 14:25:58;;;;;;;6.2;3.3;;;;;;;23.1;57.4;98590;;;;
2023/06/10 14:35:58;;;;;;;6.2;3.3;;;;;;;23.1;56;98590;;;;
2023/06/10 14:46:58;;;;;;;5.7;3.2;;;;;;;23;57.6;98600;;;;
2023/06/10 14:56:58;;;;;;;5.7;3.2;;;;;;;22.9;57.3;98580;;;;
2023/06/10 15:06:58;;;;;;;5.7;3.2;;;;;;;24.7;53.9;98580;;;;
2023/06/10 15:17:58;;;;;;;6.3;2.6;;;;;;;25.6;49.7;98590;;;;
2023/06/10 15:29:03;;;;;;;6.3;2.6;;;;;;;26.7;46.9;98590;;;;
2023/06/10 15:39:58;;;;;;;6.3;2.6;;;;;;;26.1;47.3;98590;;;;
2023/06/10 15:49:59;;;;;;;6;2.6;;;;;;;25.3;49.6;98600;;;;
2023/06/10 16:00:58;;;;;;;6;2.6;;;;;;;25.7;47.1;98600;;;;
2023/06/10 16:11:59;;;;;;;6;2.6;;;;;;;27.5;45.2;98600;;;;
2023/06/10 16:21:58;;;;;;;4.9;2.7;;;;;;;25.1;50.2;98620;;;;
2023/06/10 16:31:58;;;;;;;4.9;2.7;;;;;;;23.4;53.7;98640;;;;
2023/06/10 16:42:58;;;;;;;4.9;2.7;;;;;;;22.2;58.4;98640;;;;
2023/06/10 16:52:59;;;;;;;6.7;3.1;;;;;;;23;55.1;98650;;;;
2023/06/10 17:02:59;;;;;;;6.7;3.1;;;;;;;21.3;59.4;98660;;;;
2023/06/10 17:12:58;;;;;;;6.7;3.1;;;;;;;20.3;62.4;98670;;;;
2023/06/10 17:22:58;;;;;;;6.4;3.5;;;;;;;19.8;63.4;98680;;;;
2023/06/10 17:32:58;;;;;;;6.4;3.5;;;;;;;19.5;64.1;98690;;;;
2023/06/10 17:42:58;;;;;;;6.4;3.5;;;;;;;19.4;65.2;98700;;;;
2023/06/10 17:52:59;;;;;;;5.3;3.6;;;;;;;19.1;66.7;98710;;;;
2023/06/10 18:02:58;;;;;;;5.3;3.6;;;;;;;18.8;67.9;98720;;;;
2023/06/10 18:12:59;;;;;;;5.3;3.6;;;;;;;18.5;69.5;98730;;;;
2023/06/10 18:23:59;;;;;;;8.3;4.3;;;;;;;18.2;70;98730;;;;
2023/06/10 18:33:58;;;;;;;8.3;4.3;;;;;;;17.9;71.1;98740;;;;
2023/06/10 18:43:59;;;;;;;8.3;4.3;;;;;;;17.6;72.4;98750;;;;
2023/06/10 18:53:59;;;;;;;6.9;4.4;;;;;;;17.4;72.8;98760;;;;
2023/06/10 19:03:59;;;;;;;6.9;4.4;;;;;;;17.2;73.8;98760;;;;
2023/06/10 19:14:59;;;;;;;6.9;4.4;;;;;;;16.9;74.9;98760;;;;
2023/06/10 19:24:59;;;;;;;7;4.3;;;;;;;16.7;75.4;98760;;;;
2023/06/10 19:35:59;;;;;;;7;4.3;;;;;;;16.5;76.3;98780;;;;
2023/06/10 19:45:59;;;;;;;7;4.3;;;;;;;16.4;76.9;98780;;;;
2023/06/10 19:56:59;;;;;;;8.1;5.2;;;;;;;16.2;78.3;98790;;;;
2023/06/10 20:07:59;;;;;;;8.1;5.2;;;;;;;16;79.8;98800;;;;
2023/06/10 20:17:59;;;;;;;9;6.6;;;;;;;16;79.7;98800;;;;
2023/06/10 20:27:59;;;;;;;9;6.6;;;;;;;16;80.4;98810;;;;
2023/06/10 20:38:59;;;;;;;9;6.6;;;;;;;15.9;80.6;98810;;;;
2023/06/10 20:48:59;;;;;;;8.1;6.5;;;;;;;15.7;81.9;98820;;;;
2023/06/10 20:59:59;;;;;;;8.1;6.5;;;;;;;15.7;82.1;98810;;;;
2023/06/10 21:09:59;;;;;;;8.1;6.5;;;;;;;15.7;82.3;98820;;;;
2023/06/10 21:19:59;;;;;;;11;7.5;;;;;;;15.7;82.3;98820;;;;
2023/06/10 21:29:59;;;;;;;11;7.5;;;;;;;15.9;81.9;98820;;;;
2023/06/10 21:40:59;;;;;;;11;7.5;;;;;;;15.9;81.5;98820;;;;
2023/06/10 21:51:59;;;;;;;10.5;7.6;;;;;;;15.8;81.6;98820;;;;
2023/06/10 22:02:59;;;;;;;10.5;7.6;;;;;;;15.7;82;98830;;;;
2023/06/10 22:12:59;;;;;;;10.5;7.6;;;;;;;15.7;82.2;98830;;;;
2023/06/10 22:22:59;;;;;;;11.5;7.6;;;;;;;15.6;82;98820;;;;
2023/06/10 22:33:59;;;;;;;11.5;7.6;;;;;;;15.5;82.6;98820;;;;
2023/06/10 22:43:59;;;;;;;11.5;7.6;;;;;;;15.5;82.5;98820;;;;
2023/06/10 22:53:59;;;;;;;8.1;6.4;;;;;;;15.5;82.2;98830;;;;
2023/06/10 23:04:59;;;;;;;8.1;6.4;;;;;;;15.6;82;98820;;;;
2023/06/10 23:14:59;;;;;;;8.1;6.4;;;;;;;15.7;81.3;98820;;;;
2023/06/10 23:25:00;;;;;;;8.3;6.4;;;;;;;15.5;81.3;98810;;;;
2023/06/10 23:34:59;;;;;;;8.3;6.4;;;;;;;15.4;81.7;98800;;;;
2023/06/10 23:45:59;;;;;;;8.3;6.4;;;;;;;15.1;82.7;98810;;;;
2023/06/10 23:56:59;;;;;;;10.6;8.2;;;;;;;15.1;83;98810;;;;
